Terminal Aerodrome Forecast
Issued by NWS

Current Version | Previous Version | Text Only | Print | Product List | Glossary On
Versions: 1 2 3 4 5 6 7 8 9 10 11 12 13 14 15 16 17 18
000
FTUS46 KHNX 220524
TAFMER
TAF
KMER 220524Z 2206/2306 VRB03KT 5SM BR SKC
      TEMPO 2206/2208 2SM BR
     FM220800 VRB03KT 2SM BR BKN007
     FM221000 VRB03KT 1/4SM FG VV001
     FM221800 VRB03KT 1SM BR OVC005
     FM222100 32005KT 4SM HZ SCT005 BKN015=

USA.gov is the U.S. government's official web portal to all federal, state and local government web resources and services.